North Cedar, Iowa
Current Conditions -  °F | °C
As of 2:11 PM on Friday 24 Oct 2014 (Local Time) from KALO Reporting Station
Light Rain Light Rain  
Wind Chill: 57°   Ceiling: 200
Heat Index: 57°   Visibility: 1.2mi
Dew Point: 57°   Wind: 8mph
Humidity: 100%   Direction: 180°S
Pressure: 29.9"   Gusts: NA
Location:  42.5035°N, 92.4936°W
Report Text: KALO 241911Z 18007KT 1 1/4SM R12/4500V6000FT -RA BR OVC002 14/14 A2990 RMK AO2 P0001 T01390139
Loading
Personal Weather Stations






























Interactive Weather Map
Tropical Storm Tracking
New forecast layout! Learn more

10-Day Weather Forecast

Advertisements
Track Severe Weather on mobile